Terminal Aerodrome Forecast
Issued by NWS Buffalo, NY

Home | Current Version | Previous Version | Text Only | Print | Product List | Glossary On
Versions: 1 2 3 4 5 6 7 8 9 10 11 12 13 14 15 16 17 18 19 20 21 22 23 24
346
FTUS41 KBUF 251121
TAFROC
TAF
KROC 251121Z 2512/2612 22012KT P6SM -SHRA OVC080
     FM251500 21012KT 4SM RA OVC060
     FM251700 25018G26KT 5SM RA VCTS OVC025CB
     FM251800 26019G29KT P6SM -RA OVC045
     FM252000 25019G35KT P6SM BKN045
     FM260100 25019G31KT P6SM BKN045=

USA.gov is the U.S. government's official web portal to all federal, state and local government web resources and services.